createdAt,value
2018-02-02T00:01:08.593Z,52.70
2018-02-02T00:03:37.628Z,52.60
2018-02-02T00:06:05.971Z,52.60
2018-02-02T00:08:34.260Z,52.60
2018-02-02T00:11:03.294Z,52.50
2018-02-02T00:13:31.578Z,52.50
2018-02-02T00:15:59.874Z,52.50
2018-02-02T00:18:28.174Z,52.60
2018-02-02T00:20:57.263Z,52.70
2018-02-02T00:23:26.334Z,52.30
2018-02-02T00:25:55.504Z,52.50
2018-02-02T00:28:25.255Z,52.60
2018-02-02T00:30:53.549Z,52.60
2018-02-02T00:33:22.584Z,52.60
2018-02-02T00:35:50.881Z,52.60
2018-02-02T00:38:19.165Z,52.70
2018-02-02T00:40:47.513Z,52.70
2018-02-02T00:43:15.907Z,52.80
2018-02-02T00:45:44.155Z,52.80
2018-02-02T00:48:12.467Z,52.80
2018-02-02T00:50:46.285Z,52.90
2018-02-02T00:53:14.578Z,52.90
2018-02-02T00:55:42.850Z,52.90
2018-02-02T00:58:11.213Z,52.90
2018-02-02T01:00:39.489Z,52.90
2018-02-02T01:03:07.815Z,53.00
2018-02-02T01:05:36.086Z,53.00
2018-02-02T01:08:05.128Z,53.10
2018-02-02T01:10:33.400Z,53.10
2018-02-02T01:13:01.652Z,53.10
2018-02-02T01:15:30.829Z,53.20
2018-02-02T01:17:59.132Z,53.40
2018-02-02T01:20:28.198Z,53.30
2018-02-02T01:22:56.519Z,53.30
2018-02-02T01:25:24.800Z,53.40
2018-02-02T01:27:53.114Z,53.40
2018-02-02T01:30:21.374Z,53.40
2018-02-02T01:32:49.693Z,53.30
2018-02-02T01:35:17.944Z,53.40
2018-02-02T01:37:46.298Z,53.40
2018-02-02T01:40:14.577Z,53.50
2018-02-02T01:42:42.900Z,53.50
2018-02-02T01:45:11.165Z,53.50
2018-02-02T01:47:39.585Z,53.60
2018-02-02T01:50:07.848Z,53.60
2018-02-02T01:52:36.899Z,54.30
2018-02-02T01:55:05.233Z,53.70
2018-02-02T01:57:34.345Z,53.80
2018-02-02T02:00:02.654Z,53.80
2018-02-02T02:02:30.932Z,53.70
2018-02-02T02:04:59.261Z,53.80
2018-02-02T02:07:28.292Z,53.70
2018-02-02T02:09:56.604Z,53.70
2018-02-02T02:12:24.937Z,53.80
2018-02-02T02:14:54.456Z,53.70
2018-02-02T02:17:22.731Z,53.80
2018-02-02T02:19:51.031Z,53.90
2018-02-02T02:22:19.352Z,53.90
2018-02-02T02:24:48.388Z,53.80
2018-02-02T02:27:16.678Z,53.80
2018-02-02T02:29:44.956Z,53.90
2018-02-02T02:32:13.543Z,53.90
2018-02-02T02:34:41.798Z,53.80
2018-02-02T02:37:10.118Z,54.00
2018-02-02T02:39:38.413Z,54.10
2018-02-02T02:42:06.692Z,54.10
2018-02-02T02:44:35.041Z,54.10
2018-02-02T02:47:03.325Z,54.10
2018-02-02T02:49:31.599Z,54.10
2018-02-02T02:51:59.972Z,54.00
2018-02-02T02:54:28.246Z,54.10
2018-02-02T02:56:56.531Z,54.00
2018-02-02T02:59:24.836Z,54.00
2018-02-02T03:01:53.096Z,54.00
2018-02-02T03:04:21.364Z,54.00
2018-02-02T03:06:49.727Z,54.00
2018-02-02T03:09:18.031Z,53.90
2018-02-02T03:11:46.409Z,53.90
2018-02-02T03:14:14.675Z,54.00
2018-02-02T03:16:42.986Z,53.90
2018-02-02T03:19:11.361Z,53.90
2018-02-02T03:21:39.615Z,54.00
2018-02-02T03:24:08.754Z,54.10
2018-02-02T03:26:37.014Z,54.00
2018-02-02T03:29:05.516Z,54.00
2018-02-02T03:31:34.671Z,54.00
2018-02-02T03:34:02.974Z,54.10
2018-02-02T03:36:31.320Z,54.00
2018-02-02T03:38:59.701Z,54.00
2018-02-02T03:41:27.981Z,54.10
2018-02-02T03:43:56.295Z,54.10
2018-02-02T03:46:24.560Z,54.20
2018-02-02T03:48:52.918Z,54.10
2018-02-02T03:51:21.235Z,54.20
2018-02-02T03:53:49.512Z,54.20
2018-02-02T03:56:17.868Z,54.20
2018-02-02T03:58:46.365Z,54.40
2018-02-02T04:01:14.638Z,54.40
2018-02-02T04:03:43.053Z,54.50
2018-02-02T04:06:12.108Z,54.50
2018-02-02T04:08:40.411Z,54.40
2018-02-02T04:11:08.768Z,54.40
2018-02-02T04:13:37.053Z,54.50
2018-02-02T04:16:05.341Z,54.40
2018-02-02T04:18:33.685Z,54.40
2018-02-02T04:21:01.973Z,54.50
2018-02-02T04:23:30.330Z,54.60
2018-02-02T04:25:58.591Z,54.60
2018-02-02T04:28:27.671Z,54.70
2018-02-02T04:30:56.803Z,54.60
2018-02-02T04:33:25.142Z,54.60
2018-02-02T04:35:55.421Z,54.60
2018-02-02T04:38:23.733Z,54.70
2018-02-02T04:40:52.019Z,54.70
2018-02-02T04:43:21.141Z,55.50
2018-02-02T04:45:49.455Z,54.90
2018-02-02T04:48:17.888Z,55.00
2018-02-02T04:50:47.020Z,55.00
2018-02-02T04:53:15.367Z,55.00
2018-02-02T04:55:44.444Z,54.80
2018-02-02T04:58:13.504Z,54.80
2018-02-02T05:00:42.543Z,54.80
2018-02-02T05:03:11.621Z,54.70
2018-02-02T05:05:39.989Z,54.70
2018-02-02T05:08:08.336Z,54.70
2018-02-02T05:10:36.686Z,54.60
2018-02-02T05:13:05.770Z,54.60
2018-02-02T05:15:34.878Z,54.60
2018-02-02T05:18:03.302Z,54.60
2018-02-02T05:20:31.642Z,54.80
2018-02-02T05:22:59.964Z,54.90
2018-02-02T05:25:28.279Z,54.80
2018-02-02T05:27:56.654Z,54.70
2018-02-02T05:30:24.929Z,54.70
2018-02-02T05:32:53.256Z,55.30
2018-02-02T05:35:21.649Z,54.70
2018-02-02T05:37:49.916Z,54.60
2018-02-02T05:40:18.241Z,54.70
2018-02-02T05:42:46.528Z,54.60
2018-02-02T05:45:14.809Z,54.40
2018-02-02T05:47:43.903Z,54.60
2018-02-02T05:50:12.178Z,54.50
2018-02-02T05:52:41.348Z,54.70
2018-02-02T05:55:09.713Z,54.70
2018-02-02T05:57:38.038Z,54.80
2018-02-02T06:00:06.373Z,54.90
2018-02-02T06:02:34.779Z,55.50
2018-02-02T06:05:03.088Z,54.90
2018-02-02T06:07:31.533Z,55.50
2018-02-02T06:09:59.901Z,54.90
2018-02-02T06:12:28.280Z,54.90
2018-02-02T06:14:56.595Z,55.00
2018-02-02T06:17:25.692Z,54.90
2018-02-02T06:19:54.793Z,55.10
2018-02-02T06:22:23.136Z,55.00
2018-02-02T06:24:51.501Z,55.20
2018-02-02T06:27:19.844Z,55.30
2018-02-02T06:29:49.044Z,55.30
2018-02-02T06:32:18.272Z,55.30
2018-02-02T06:34:46.563Z,55.30
2018-02-02T06:37:14.948Z,55.30
2018-02-02T06:39:43.267Z,55.40
2018-02-02T06:42:12.354Z,55.50
2018-02-02T06:44:41.611Z,55.50
2018-02-02T06:47:09.994Z,55.50
2018-02-02T06:49:38.298Z,55.50
2018-02-02T06:52:06.705Z,55.50
2018-02-02T06:54:35.808Z,55.50
2018-02-02T06:57:04.131Z,55.60
2018-02-02T06:59:33.220Z,55.50
2018-02-02T07:02:01.537Z,55.60
2018-02-02T07:04:29.892Z,55.60
2018-02-02T07:06:58.194Z,55.70
2018-02-02T07:09:26.506Z,55.60
2018-02-02T07:11:54.829Z,55.80
2018-02-02T07:14:23.129Z,55.70
2018-02-02T07:16:51.492Z,55.70
2018-02-02T07:19:19.870Z,55.80
2018-02-02T07:21:48.189Z,55.70
2018-02-02T07:24:17.225Z,55.80
2018-02-02T07:26:45.536Z,55.80
2018-02-02T07:29:13.866Z,55.70
2018-02-02T07:31:42.175Z,55.80
2018-02-02T07:34:10.529Z,55.80
2018-02-02T07:36:39.559Z,55.80
2018-02-02T07:39:07.905Z,55.80
2018-02-02T07:41:36.221Z,55.80
2018-02-02T07:44:04.532Z,55.90
2018-02-02T07:46:33.627Z,55.90
2018-02-02T07:49:02.019Z,55.90
2018-02-02T07:51:30.322Z,56.00
2018-02-02T07:53:58.929Z,56.10
2018-02-02T07:56:27.235Z,56.10
2018-02-02T07:58:55.509Z,56.80
2018-02-02T08:01:23.836Z,56.30
2018-02-02T08:03:52.115Z,56.30
2018-02-02T08:06:20.413Z,56.40
2018-02-02T08:08:48.700Z,56.40
2018-02-02T08:11:17.311Z,56.40
2018-02-02T08:13:45.582Z,56.50
2018-02-02T08:16:13.921Z,56.60
2018-02-02T08:18:42.297Z,56.50
2018-02-02T08:21:10.616Z,56.50
2018-02-02T08:23:39.007Z,56.60
2018-02-02T08:26:07.369Z,56.60
2018-02-02T08:28:35.731Z,56.70
2018-02-02T08:31:04.095Z,56.60
2018-02-02T08:33:32.463Z,56.70
2018-02-02T08:36:00.828Z,56.70
2018-02-02T08:38:29.107Z,56.60
2018-02-02T08:40:57.444Z,56.60
2018-02-02T08:43:25.787Z,56.70
2018-02-02T08:45:54.119Z,56.50
2018-02-02T08:48:22.409Z,57.10
2018-02-02T08:50:51.622Z,56.50
2018-02-02T08:53:19.953Z,56.40
2018-02-02T08:55:48.249Z,56.40
2018-02-02T08:58:16.601Z,56.50
2018-02-02T09:00:50.514Z,56.50
2018-02-02T09:03:18.838Z,56.50
2018-02-02T09:05:47.920Z,55.80
2018-02-02T09:08:16.272Z,55.80
2018-02-02T09:10:44.616Z,55.90
2018-02-02T09:13:13.701Z,55.20
2018-02-02T09:15:42.006Z,55.20
2018-02-02T09:18:10.381Z,55.00
2018-02-02T09:20:38.755Z,55.00
2018-02-02T09:23:07.057Z,54.70
2018-02-02T09:25:35.420Z,54.60
2018-02-02T09:33:58.130Z,53.10
2018-02-02T09:36:26.781Z,53.00
2018-02-02T09:38:55.106Z,52.90
2018-02-02T09:41:23.388Z,52.90
2018-02-02T09:43:51.715Z,52.60
2018-02-02T09:46:19.991Z,52.60
2018-02-02T09:48:48.325Z,52.60
2018-02-02T09:51:16.669Z,52.00
2018-02-02T09:53:44.980Z,52.00
2018-02-02T09:56:13.262Z,51.50
2018-02-02T09:58:42.467Z,50.70
2018-02-02T10:01:10.806Z,50.20
2018-02-02T10:03:39.068Z,50.20
2018-02-02T10:06:07.371Z,49.80
2018-02-02T10:08:35.654Z,49.50
2018-02-02T10:11:03.993Z,49.70
2018-02-02T10:13:32.296Z,49.20
2018-02-02T10:16:00.671Z,48.80
2018-02-02T10:18:28.930Z,48.80
2018-02-02T10:20:57.245Z,48.90
2018-02-02T10:23:25.580Z,48.80
2018-02-02T10:25:54.658Z,49.00
2018-02-02T10:28:23.726Z,48.90
2018-02-02T10:30:51.987Z,49.00
2018-02-02T10:33:20.342Z,49.00
2018-02-02T10:35:48.615Z,48.60
2018-02-02T10:38:16.925Z,48.50
2018-02-02T10:40:45.217Z,48.30
2018-02-02T10:43:13.465Z,48.20
2018-02-02T10:45:41.765Z,47.80
2018-02-02T10:48:10.110Z,47.40
2018-02-02T10:50:38.407Z,47.30
2018-02-02T10:53:06.681Z,47.20
2018-02-02T10:55:35.396Z,47.20
2018-02-02T10:58:03.680Z,47.30
2018-02-02T11:00:37.614Z,47.30
2018-02-02T11:03:12.333Z,46.40
2018-02-02T11:05:40.645Z,46.40
2018-02-02T11:08:08.949Z,46.00
2018-02-02T11:10:37.238Z,45.90
2018-02-02T11:13:05.548Z,45.50
2018-02-02T11:15:33.820Z,45.40
2018-02-02T11:18:02.104Z,45.30
2018-02-02T11:20:31.135Z,46.00
2018-02-02T11:22:59.440Z,45.80
2018-02-02T11:25:27.814Z,45.60
2018-02-02T11:27:56.118Z,45.50
2018-02-02T11:30:24.400Z,45.20
2018-02-02T11:32:52.686Z,45.20
2018-02-02T11:35:21.047Z,44.90
2018-02-02T11:37:49.350Z,45.00
2018-02-02T11:40:17.651Z,45.10
2018-02-02T11:42:45.971Z,45.00
2018-02-02T11:45:14.235Z,45.00
2018-02-02T11:47:42.536Z,44.90
2018-02-02T11:50:11.218Z,44.70
2018-02-02T11:52:39.506Z,44.70
2018-02-02T11:55:07.770Z,45.40
2018-02-02T11:57:36.053Z,46.20
2018-02-02T12:00:04.341Z,46.40
2018-02-02T12:02:32.627Z,44.20
2018-02-02T12:05:00.957Z,43.90
2018-02-02T12:07:29.266Z,43.60
2018-02-02T12:09:57.569Z,42.50
2018-02-02T12:12:25.876Z,41.30
2018-02-02T12:14:54.411Z,39.80
2018-02-02T12:17:22.703Z,39.40
2018-02-02T12:19:52.726Z,38.20
2018-02-02T12:22:27.560Z,37.70
2018-02-02T12:25:02.869Z,37.60
2018-02-02T12:40:53.659Z,35.40
2018-02-02T12:43:22.240Z,34.30
2018-02-02T12:45:50.536Z,32.10
2018-02-02T13:01:48.452Z,31.10
2018-02-02T13:04:17.628Z,31.00
2018-02-02T13:06:46.302Z,30.90
2018-02-02T13:09:16.223Z,31.50
2018-02-02T13:11:44.822Z,31.50
2018-02-02T13:14:13.988Z,32.60
2018-02-02T13:16:42.279Z,31.90
2018-02-02T13:19:10.717Z,31.40
2018-02-02T13:21:40.683Z,30.90
2018-02-02T13:24:09.923Z,30.10
2018-02-02T13:26:38.254Z,30.20
2018-02-02T13:29:06.532Z,30.80
2018-02-02T13:31:36.286Z,30.90
2018-02-02T13:34:04.574Z,31.20
2018-02-02T13:36:33.452Z,32.00
2018-02-02T13:39:01.716Z,32.70
2018-02-02T13:41:30.788Z,32.90
2018-02-02T13:43:59.751Z,32.90
2018-02-02T13:46:28.029Z,32.70
2018-02-02T13:48:56.355Z,32.30
2018-02-02T13:51:25.209Z,32.40
2018-02-02T13:53:53.520Z,32.50
2018-02-02T13:56:21.817Z,32.20
2018-02-02T13:58:50.884Z,32.60
2018-02-02T14:01:19.271Z,32.50
2018-02-02T14:03:47.565Z,32.80
2018-02-02T14:06:15.891Z,32.90
2018-02-02T14:08:44.848Z,33.40
2018-02-02T14:11:13.909Z,34.00
2018-02-02T14:13:42.360Z,34.00
2018-02-02T14:16:10.692Z,35.00
2018-02-02T14:18:40.669Z,35.10
2018-02-02T14:21:08.990Z,35.10
2018-02-02T14:23:38.114Z,36.70
2018-02-02T14:26:06.431Z,36.80
2018-02-02T14:28:34.829Z,37.00
2018-02-02T14:31:03.119Z,37.30
2018-02-02T14:33:31.389Z,37.60
2018-02-02T14:35:59.713Z,37.90
2018-02-02T14:38:27.994Z,38.30
2018-02-02T14:40:56.303Z,38.50
2018-02-02T14:43:24.632Z,38.90
2018-02-02T14:45:53.679Z,39.40
2018-02-02T14:48:22.099Z,39.30
2018-02-02T14:50:51.157Z,39.80
2018-02-02T14:53:19.434Z,39.80
2018-02-02T14:55:47.704Z,40.10
2018-02-02T14:58:16.001Z,40.30
2018-02-02T15:00:44.299Z,40.50
2018-02-02T15:03:12.614Z,40.60
2018-02-02T15:05:40.871Z,40.90
2018-02-02T15:08:09.208Z,41.00
2018-02-02T15:10:37.476Z,41.20
2018-02-02T15:13:05.733Z,41.50
2018-02-02T15:15:34.050Z,41.70
2018-02-02T15:18:02.366Z,41.90
2018-02-02T15:20:31.447Z,42.10
2018-02-02T15:23:01.052Z,42.30
2018-02-02T15:25:29.627Z,42.30
2018-02-02T15:27:57.901Z,42.60
2018-02-02T15:30:26.237Z,42.80
2018-02-02T15:32:54.529Z,42.90
2018-02-02T15:35:22.790Z,43.60
2018-02-02T15:37:51.106Z,43.90
2018-02-02T15:40:39.240Z,44.10
2018-02-02T15:43:08.130Z,44.60
2018-02-02T15:45:36.404Z,44.70
2018-02-02T15:48:04.706Z,44.70
2018-02-02T15:50:33.761Z,44.80
2018-02-02T15:53:02.025Z,44.90
2018-02-02T15:55:30.330Z,45.10
2018-02-02T15:57:59.493Z,45.20
2018-02-02T16:00:27.802Z,45.20
2018-02-02T16:02:56.087Z,45.30
2018-02-02T16:05:24.407Z,45.40
2018-02-02T16:07:53.441Z,46.50
2018-02-02T16:10:21.697Z,46.50
2018-02-02T16:12:50.047Z,46.30
2018-02-02T16:15:18.413Z,46.20
2018-02-02T16:17:46.697Z,46.00
2018-02-02T16:20:15.021Z,45.90
2018-02-02T16:22:43.350Z,45.90
2018-02-02T16:25:11.650Z,45.80
2018-02-02T16:27:40.955Z,45.80
2018-02-02T16:30:09.237Z,45.80
2018-02-02T16:32:37.545Z,46.00
2018-02-02T16:35:05.869Z,46.10
2018-02-02T16:37:34.151Z,46.10
2018-02-02T16:40:02.490Z,46.10
2018-02-02T16:42:30.936Z,46.10
2018-02-02T16:45:00.024Z,46.30
2018-02-02T16:47:29.102Z,46.20
2018-02-02T16:49:57.353Z,46.20
2018-02-02T16:52:25.694Z,46.20
2018-02-02T16:54:53.976Z,46.20
2018-02-02T16:57:22.290Z,46.30
2018-02-02T16:59:50.585Z,46.30
2018-02-02T17:02:18.862Z,46.40
2018-02-02T17:04:47.151Z,46.40
2018-02-02T17:07:15.447Z,46.40
2018-02-02T17:09:44.953Z,46.50
2018-02-02T17:12:14.818Z,46.50
2018-02-02T17:14:43.085Z,46.50
2018-02-02T17:17:11.377Z,46.50
2018-02-02T17:19:39.659Z,46.60
2018-02-02T17:22:07.978Z,46.70
2018-02-02T17:24:36.303Z,46.70
2018-02-02T17:27:05.025Z,46.70
2018-02-02T17:29:34.225Z,46.70
2018-02-02T17:32:02.521Z,46.70
2018-02-02T17:34:30.839Z,46.70
2018-02-02T17:36:59.834Z,46.80
2018-02-02T17:39:28.146Z,47.40
2018-02-02T17:41:56.440Z,46.80
2018-02-02T17:44:24.726Z,46.70
2018-02-02T17:46:53.060Z,46.70
2018-02-02T17:49:21.353Z,46.70
2018-02-02T17:51:49.935Z,46.60
2018-02-02T17:54:18.216Z,46.60
2018-02-02T17:56:46.508Z,46.60
2018-02-02T17:59:16.417Z,46.70
2018-02-02T18:01:51.112Z,46.70
2018-02-02T18:04:19.407Z,46.70
2018-02-02T18:06:47.691Z,46.60
2018-02-02T18:09:16.057Z,46.70
2018-02-02T18:11:45.163Z,46.70
2018-02-02T18:14:13.501Z,46.70
2018-02-02T18:16:41.870Z,46.60
2018-02-02T18:19:10.987Z,46.60
2018-02-02T18:21:39.368Z,46.60
2018-02-02T18:24:07.834Z,46.60
2018-02-02T18:26:36.927Z,46.60
2018-02-02T18:29:06.024Z,46.50
2018-02-02T18:31:34.359Z,46.50
2018-02-02T18:34:02.814Z,46.60
2018-02-02T18:36:31.102Z,46.60
2018-02-02T18:38:59.467Z,46.70
2018-02-02T18:41:27.748Z,46.70
2018-02-02T18:43:56.050Z,46.80
2018-02-02T18:46:24.341Z,46.90
2018-02-02T18:48:52.657Z,46.90
2018-02-02T18:51:20.986Z,46.90
2018-02-02T18:53:49.284Z,47.00
2018-02-02T18:56:17.654Z,47.00
2018-02-02T18:58:45.978Z,47.20
2018-02-02T19:01:15.154Z,47.20
2018-02-02T19:03:44.248Z,46.90
2018-02-02T19:06:12.620Z,47.30
2018-02-02T19:08:40.928Z,47.40
2018-02-02T19:11:10.048Z,47.40
2018-02-02T19:13:38.376Z,47.40
2018-02-02T19:16:06.694Z,47.50
2018-02-02T19:18:35.062Z,47.50
2018-02-02T19:21:04.137Z,47.50
2018-02-02T19:23:33.203Z,47.50
2018-02-02T19:26:01.547Z,47.40
2018-02-02T19:28:29.916Z,47.50
2018-02-02T19:30:58.188Z,47.40
2018-02-02T19:33:27.357Z,47.30
2018-02-02T19:35:55.688Z,47.40
2018-02-02T19:38:24.001Z,47.40
2018-02-02T19:40:52.357Z,47.50
2018-02-02T19:43:20.695Z,47.40
2018-02-02T19:45:49.081Z,47.50
2018-02-02T19:48:18.197Z,47.60
2018-02-02T19:50:47.369Z,47.50
2018-02-02T19:53:15.727Z,47.50
2018-02-02T19:55:45.515Z,47.40
2018-02-02T19:58:13.823Z,47.40
2018-02-02T20:00:42.102Z,47.40
2018-02-02T20:03:10.429Z,47.40
2018-02-02T20:05:38.712Z,47.40
2018-02-02T20:08:07.730Z,47.40
2018-02-02T20:10:40.072Z,47.30
2018-02-02T20:13:08.817Z,47.30
2018-02-02T20:15:37.142Z,47.30
2018-02-02T20:18:05.504Z,47.30
2018-02-02T20:20:34.680Z,47.40
2018-02-02T20:23:03.814Z,47.30
2018-02-02T20:25:32.101Z,47.40
2018-02-02T20:28:00.532Z,47.40
2018-02-02T20:30:29.005Z,47.40
2018-02-02T20:32:57.313Z,47.40
2018-02-02T20:35:25.635Z,47.40
2018-02-02T20:37:54.845Z,47.40
2018-02-02T20:40:23.266Z,47.30
2018-02-02T20:42:52.318Z,47.40
2018-02-02T20:45:20.656Z,47.50
2018-02-02T20:47:49.006Z,47.40
2018-02-02T20:50:18.208Z,47.40
2018-02-02T20:52:46.559Z,47.40
2018-02-02T20:55:14.904Z,47.40
2018-02-02T20:57:43.213Z,47.40
2018-02-02T21:00:11.669Z,47.50
2018-02-02T21:02:40.927Z,47.50
2018-02-02T21:05:09.265Z,47.50
2018-02-02T21:07:37.732Z,47.50
2018-02-02T21:10:06.076Z,47.60
2018-02-02T21:12:35.182Z,47.60
2018-02-02T21:15:03.497Z,47.60
2018-02-02T21:17:31.864Z,47.60
2018-02-02T21:20:00.511Z,47.60
2018-02-02T21:22:29.913Z,48.00
2018-02-02T21:24:58.217Z,47.70
2018-02-02T21:27:27.697Z,47.80
2018-02-02T21:29:56.224Z,47.70
2018-02-02T21:32:24.970Z,47.80
2018-02-02T21:34:53.665Z,47.80
2018-02-02T21:37:22.129Z,47.90
2018-02-02T21:39:50.587Z,47.90
2018-02-02T21:42:19.000Z,47.90
2018-02-02T21:44:47.426Z,48.20
2018-02-02T21:47:15.922Z,48.20
2018-02-02T21:49:44.285Z,48.00
2018-02-02T21:52:13.307Z,47.90
2018-02-02T21:54:42.049Z,48.10
2018-02-02T21:57:11.363Z,48.00
2018-02-02T21:59:40.506Z,48.00
2018-02-02T22:02:08.811Z,48.00
2018-02-02T22:04:38.749Z,48.10
2018-02-02T22:07:07.435Z,48.10
2018-02-02T22:09:35.723Z,48.10
2018-02-02T22:12:04.026Z,48.20
2018-02-02T22:14:34.215Z,48.10
2018-02-02T22:17:02.538Z,48.20
2018-02-02T22:19:30.833Z,48.30
2018-02-02T22:21:59.316Z,48.40
2018-02-02T22:24:27.612Z,48.40
2018-02-02T22:26:55.890Z,48.50
2018-02-02T22:29:24.238Z,48.40
2018-02-02T22:31:52.496Z,48.30
2018-02-02T22:34:20.795Z,48.40
2018-02-02T22:36:49.125Z,48.60
2018-02-02T22:39:17.427Z,48.60
2018-02-02T22:41:45.741Z,48.60
2018-02-02T22:44:14.146Z,48.60
2018-02-02T22:46:42.405Z,48.60
2018-02-02T22:49:10.705Z,48.60
2018-02-02T22:51:39.742Z,48.70
2018-02-02T22:54:08.064Z,48.70
2018-02-02T22:56:36.359Z,48.80
2018-02-02T22:59:05.404Z,48.70
2018-02-02T23:01:33.673Z,48.70
2018-02-02T23:04:02.740Z,49.50
2018-02-02T23:06:31.039Z,48.80
2018-02-02T23:08:59.334Z,48.90
2018-02-02T23:11:27.677Z,48.80
2018-02-02T23:13:55.942Z,48.80
2018-02-02T23:16:24.222Z,48.90
2018-02-02T23:18:53.274Z,49.00
2018-02-02T23:21:21.596Z,49.00
2018-02-02T23:23:50.667Z,49.10
2018-02-02T23:26:18.952Z,49.20
2018-02-02T23:28:47.344Z,49.20
2018-02-02T23:31:15.611Z,49.30
2018-02-02T23:33:43.888Z,49.70
2018-02-02T23:36:12.191Z,49.50
2018-02-02T23:38:40.517Z,49.60
2018-02-02T23:41:08.791Z,49.80
2018-02-02T23:43:37.094Z,50.40
2018-02-02T23:46:05.380Z,49.90
2018-02-02T23:48:33.731Z,50.00
2018-02-02T23:51:01.996Z,50.20
2018-02-02T23:53:30.304Z,50.10
2018-02-02T23:55:58.563Z,50.10
2018-02-02T23:58:26.841Z,50.20
